createdAt,value
2022-07-25T00:02:03.597Z,25.34
2022-07-25T00:05:05.602Z,25.31
2022-07-25T00:08:07.046Z,25.31
2022-07-25T00:11:08.470Z,25.35
2022-07-25T00:14:10.236Z,25.30
2022-07-25T00:17:11.962Z,25.26
2022-07-25T00:20:13.457Z,25.23
2022-07-25T00:23:14.865Z,25.27
2022-07-25T00:26:16.927Z,25.30
2022-07-25T00:29:18.333Z,25.34
2022-07-25T00:32:19.856Z,25.40
2022-07-25T00:35:21.313Z,25.41
2022-07-25T00:38:22.729Z,25.43
2022-07-25T00:41:25.092Z,25.44
2022-07-25T00:44:29.460Z,25.40
2022-07-25T00:47:31.288Z,25.36
2022-07-25T00:50:32.887Z,25.44
2022-07-25T00:53:35.326Z,25.49
2022-07-25T00:56:37.734Z,25.53
2022-07-25T00:59:39.167Z,25.53
2022-07-25T01:02:41.500Z,25.55
2022-07-25T01:05:43.026Z,25.57
2022-07-25T01:08:45.014Z,25.58
2022-07-25T01:11:47.601Z,25.55
2022-07-25T01:14:49.057Z,25.54
2022-07-25T01:17:51.206Z,25.55
2022-07-25T01:20:53.188Z,25.59
2022-07-25T01:23:54.883Z,25.54
2022-07-25T01:26:56.342Z,25.51
2022-07-25T01:29:57.758Z,25.48
2022-07-25T01:32:59.233Z,25.41
2022-07-25T01:36:08.243Z,25.33
2022-07-25T01:39:09.707Z,25.29
2022-07-25T01:42:11.121Z,25.26
2022-07-25T01:45:12.901Z,25.22
2022-07-25T01:48:14.437Z,25.14
2022-07-25T01:51:15.964Z,25.12
2022-07-25T01:54:21.956Z,25.04
2022-07-25T01:57:25.007Z,24.98
2022-07-25T02:00:32.354Z,24.85
2022-07-25T02:03:33.831Z,24.79
2022-07-25T02:06:35.767Z,24.81
2022-07-25T02:09:37.228Z,24.74
2022-07-25T02:12:38.669Z,24.70
2022-07-25T02:15:40.177Z,24.64
2022-07-25T02:18:41.619Z,24.65
2022-07-25T02:21:43.102Z,24.62
2022-07-25T02:24:44.523Z,24.64
2022-07-25T02:27:45.941Z,24.64
2022-07-25T02:30:47.460Z,24.66
2022-07-25T02:33:48.881Z,24.70
2022-07-25T02:36:50.377Z,24.67
2022-07-25T02:39:51.848Z,24.63
2022-07-25T02:42:53.338Z,24.57
2022-07-25T02:45:54.846Z,24.50
2022-07-25T02:48:56.429Z,24.48
2022-07-25T02:51:57.865Z,24.45
2022-07-25T02:54:59.314Z,24.44
2022-07-25T02:58:00.770Z,24.34
2022-07-25T03:01:02.325Z,24.32
2022-07-25T03:04:04.431Z,24.35
2022-07-25T03:07:06.079Z,24.36
2022-07-25T03:10:11.451Z,24.38
2022-07-25T03:13:13.149Z,24.38
2022-07-25T03:16:14.607Z,24.38
2022-07-25T03:19:16.204Z,24.39
2022-07-25T03:22:17.636Z,24.38
2022-07-25T03:25:21.381Z,24.36
2022-07-25T03:28:24.634Z,24.36
2022-07-25T03:31:26.192Z,24.32
2022-07-25T03:34:28.194Z,24.28
2022-07-25T03:37:29.774Z,24.25
2022-07-25T03:40:31.668Z,24.21
2022-07-25T03:43:33.083Z,24.17
2022-07-25T03:46:34.936Z,24.16
2022-07-25T03:49:36.710Z,24.19
2022-07-25T03:52:39.910Z,24.21
2022-07-25T03:55:41.456Z,24.19
2022-07-25T03:58:42.882Z,24.12
2022-07-25T04:01:46.232Z,24.12
2022-07-25T04:04:47.717Z,24.06
2022-07-25T04:07:49.122Z,24.01
2022-07-25T04:10:50.702Z,24.01
2022-07-25T04:13:52.118Z,23.95
2022-07-25T04:16:53.551Z,23.90
2022-07-25T04:19:55.007Z,23.84
2022-07-25T04:22:56.415Z,23.73
2022-07-25T04:25:58.097Z,23.73
2022-07-25T04:29:02.910Z,23.67
2022-07-25T04:32:05.084Z,23.65
2022-07-25T04:35:07.286Z,23.66
2022-07-25T04:38:12.190Z,23.74
2022-07-25T04:41:13.904Z,23.70
2022-07-25T04:44:15.418Z,23.72
2022-07-25T04:47:16.827Z,23.75
2022-07-25T04:50:23.074Z,23.76
2022-07-25T04:53:26.536Z,23.75
2022-07-25T04:56:27.981Z,23.73
2022-07-25T04:59:29.392Z,23.76
2022-07-25T05:02:30.894Z,23.75
2022-07-25T05:05:32.637Z,23.80
2022-07-25T05:08:34.063Z,23.81
2022-07-25T05:11:36.250Z,23.87
2022-07-25T05:14:38.454Z,23.94
2022-07-25T05:17:39.945Z,24.01
2022-07-25T05:20:41.400Z,24.07
2022-07-25T05:23:42.844Z,24.08
2022-07-25T05:26:44.285Z,24.18
2022-07-25T05:29:45.694Z,24.29
2022-07-25T05:32:47.127Z,24.31
2022-07-25T05:35:49.195Z,24.46
2022-07-25T05:38:50.650Z,24.58
2022-07-25T05:41:52.176Z,24.54
2022-07-25T05:44:53.599Z,24.66
2022-07-25T05:47:55.010Z,24.79
2022-07-25T05:50:57.597Z,25.00
2022-07-25T05:53:59.585Z,25.13
2022-07-25T05:57:01.677Z,25.25
2022-07-25T06:00:05.608Z,25.39
2022-07-25T06:03:07.118Z,25.45
2022-07-25T06:06:09.483Z,25.55
2022-07-25T06:09:10.899Z,25.63
2022-07-25T06:12:13.946Z,25.72
2022-07-25T06:15:22.266Z,25.64
2022-07-25T06:18:28.979Z,25.81
2022-07-25T06:21:30.647Z,25.75
2022-07-25T06:24:32.109Z,25.83
2022-07-25T06:27:33.563Z,25.97
2022-07-25T06:30:35.009Z,26.12
2022-07-25T06:33:36.498Z,26.30
2022-07-25T06:36:37.996Z,26.43
2022-07-25T06:39:42.547Z,26.52
2022-07-25T06:42:47.613Z,26.65
2022-07-25T06:45:49.843Z,26.72
2022-07-25T06:48:51.293Z,26.82
2022-07-25T06:51:53.700Z,26.93
2022-07-25T06:54:55.112Z,27.01
2022-07-25T06:57:56.546Z,27.02
2022-07-25T07:00:58.495Z,27.31
2022-07-25T07:04:00.040Z,27.40
2022-07-25T07:07:01.529Z,27.48
2022-07-25T07:10:03.129Z,27.69
2022-07-25T07:13:10.182Z,27.91
2022-07-25T07:16:12.165Z,28.01
2022-07-25T07:19:14.569Z,28.00
2022-07-25T07:22:15.998Z,27.94
2022-07-25T07:25:19.624Z,27.98
2022-07-25T07:28:21.281Z,28.03
2022-07-25T07:31:22.871Z,28.10
2022-07-25T07:34:24.344Z,28.27
2022-07-25T07:37:25.865Z,28.36
2022-07-25T07:40:27.516Z,28.34
2022-07-25T07:43:31.652Z,28.26
2022-07-25T07:46:33.254Z,28.43
2022-07-25T07:49:37.105Z,28.55
2022-07-25T07:52:38.788Z,28.65
2022-07-25T07:55:48.065Z,28.55
2022-07-25T07:58:50.428Z,28.66
2022-07-25T08:01:51.994Z,28.70
2022-07-25T08:04:53.512Z,28.75
2022-07-25T08:07:55.537Z,28.87
2022-07-25T08:10:59.176Z,29.04
2022-07-25T08:14:01.656Z,29.31
2022-07-25T08:17:03.164Z,29.53
2022-07-25T08:20:27.937Z,29.46
2022-07-25T08:23:31.723Z,28.98
2022-07-25T08:26:33.827Z,29.35
2022-07-25T08:29:35.281Z,29.55
2022-07-25T08:32:50.453Z,29.84
2022-07-25T08:35:54.472Z,30.06
2022-07-25T08:38:55.913Z,30.34
2022-07-25T08:41:57.674Z,30.31
2022-07-25T08:45:03.041Z,30.26
2022-07-25T08:48:04.970Z,30.52
2022-07-25T08:51:07.119Z,30.71
2022-07-25T08:54:09.626Z,30.68
2022-07-25T08:57:11.258Z,30.77
2022-07-25T09:00:16.763Z,30.77
2022-07-25T09:03:18.290Z,30.84
2022-07-25T09:06:22.429Z,30.83
2022-07-25T09:09:35.110Z,31.00
2022-07-25T09:12:36.597Z,31.33
2022-07-25T09:15:46.018Z,31.45
2022-07-25T09:18:48.402Z,31.55
2022-07-25T09:22:01.393Z,31.53
2022-07-25T09:25:02.847Z,31.84
2022-07-25T09:28:12.157Z,32.04
2022-07-25T09:31:15.018Z,32.04
2022-07-25T09:34:28.751Z,32.11
2022-07-25T09:37:30.189Z,32.27
2022-07-25T09:40:31.682Z,32.47
2022-07-25T09:43:41.470Z,32.78
2022-07-25T09:46:43.502Z,32.89
2022-07-25T09:49:47.322Z,32.90
2022-07-25T09:52:51.122Z,32.96
2022-07-25T09:55:54.998Z,33.01
2022-07-25T09:58:58.052Z,33.20
2022-07-25T10:02:26.802Z,32.97
2022-07-25T10:05:45.292Z,33.19
2022-07-25T10:08:48.772Z,33.48
2022-07-25T10:12:07.525Z,33.56
2022-07-25T10:15:11.148Z,33.51
2022-07-25T10:18:14.524Z,33.86
2022-07-25T10:21:26.735Z,33.99
2022-07-25T10:24:38.062Z,33.96
2022-07-25T10:27:52.835Z,33.85
2022-07-25T10:30:58.623Z,33.65
2022-07-25T10:34:04.042Z,33.59
2022-07-25T10:37:18.268Z,33.77
2022-07-25T10:40:34.167Z,33.77
2022-07-25T10:43:40.230Z,33.96
2022-07-25T10:46:45.627Z,33.82
2022-07-25T10:50:06.831Z,33.83
2022-07-25T10:53:10.842Z,33.79
2022-07-25T10:56:22.491Z,33.82
2022-07-25T10:59:37.125Z,33.96
2022-07-25T11:02:38.992Z,34.12
2022-07-25T11:05:47.641Z,34.20
2022-07-25T11:08:49.676Z,34.16
2022-07-25T11:11:53.574Z,34.16
2022-07-25T11:15:03.814Z,34.13
2022-07-25T11:18:05.290Z,34.06
2022-07-25T11:21:08.462Z,34.03
2022-07-25T11:24:09.862Z,34.01
2022-07-25T11:27:26.227Z,34.01
2022-07-25T11:30:31.123Z,34.09
2022-07-25T11:33:32.889Z,33.98
2022-07-25T11:36:34.564Z,33.81
2022-07-25T11:39:38.363Z,33.85
2022-07-25T11:43:03.317Z,33.77
2022-07-25T11:46:06.964Z,33.56
2022-07-25T11:49:09.099Z,33.72
2022-07-25T11:52:21.992Z,33.63
2022-07-25T11:55:29.409Z,33.69
2022-07-25T11:58:30.858Z,33.75
2022-07-25T12:01:40.648Z,33.81
2022-07-25T12:04:52.694Z,33.80
2022-07-25T12:07:54.934Z,34.10
2022-07-25T12:10:56.435Z,34.42
2022-07-25T12:14:04.394Z,34.65
2022-07-25T12:17:05.935Z,34.82
2022-07-25T12:20:24.221Z,34.97
2022-07-25T12:23:25.672Z,34.87
2022-07-25T12:26:27.207Z,34.67
2022-07-25T12:29:28.700Z,34.80
2022-07-25T12:32:30.568Z,34.91
2022-07-25T12:35:32.591Z,34.99
2022-07-25T12:38:34.095Z,35.02
2022-07-25T12:41:35.587Z,34.86
2022-07-25T12:44:36.993Z,35.00
2022-07-25T12:47:38.432Z,35.22
2022-07-25T12:50:40.069Z,35.29
2022-07-25T12:53:42.656Z,35.56
2022-07-25T12:56:44.219Z,35.55
2022-07-25T12:59:45.619Z,35.37
2022-07-25T13:02:48.232Z,35.19
2022-07-25T13:05:49.717Z,34.97
2022-07-25T13:08:51.272Z,34.81
2022-07-25T13:11:53.917Z,34.67
2022-07-25T13:14:55.369Z,34.51
2022-07-25T13:17:57.064Z,34.45
2022-07-25T13:21:00.501Z,34.51
2022-07-25T13:24:02.283Z,34.81
2022-07-25T13:27:04.842Z,34.84
2022-07-25T13:30:07.473Z,34.86
2022-07-25T13:33:10.530Z,34.86
2022-07-25T13:36:12.532Z,34.75
2022-07-25T13:39:14.285Z,34.68
2022-07-25T13:42:15.850Z,34.53
2022-07-25T13:45:17.291Z,34.52
2022-07-25T13:48:29.477Z,34.43
2022-07-25T13:51:31.926Z,34.25
2022-07-25T13:54:33.582Z,34.31
2022-07-25T13:57:35.274Z,34.29
2022-07-25T14:00:36.690Z,34.34
2022-07-25T14:03:38.522Z,34.16
2022-07-25T14:06:39.935Z,34.12
2022-07-25T14:09:41.368Z,34.06
2022-07-25T14:12:42.772Z,33.92
2022-07-25T14:15:44.897Z,33.88
2022-07-25T14:18:46.469Z,33.83
2022-07-25T14:21:47.905Z,34.17
2022-07-25T14:24:49.352Z,34.44
2022-07-25T14:27:50.844Z,34.54
2022-07-25T14:30:52.409Z,34.42
2022-07-25T14:33:53.995Z,34.39
2022-07-25T14:36:55.556Z,34.61
2022-07-25T14:40:01.343Z,34.99
2022-07-25T14:43:03.200Z,35.06
2022-07-25T14:46:05.525Z,35.01
2022-07-25T14:49:07.450Z,34.68
2022-07-25T14:52:10.138Z,34.81
2022-07-25T14:55:11.555Z,34.87
2022-07-25T14:58:13.830Z,34.79
2022-07-25T15:01:18.518Z,34.65
2022-07-25T15:04:21.967Z,34.97
2022-07-25T15:07:23.550Z,35.29
2022-07-25T15:10:24.948Z,35.27
2022-07-25T15:13:31.428Z,35.26
2022-07-25T15:16:33.655Z,35.30
2022-07-25T15:19:35.148Z,35.29
2022-07-25T15:22:36.561Z,35.32
2022-07-25T15:29:00.080Z,35.21
2022-07-25T15:32:03.523Z,35.37
2022-07-25T15:35:05.706Z,35.44
2022-07-25T15:38:07.295Z,35.28
2022-07-25T15:41:10.611Z,35.05
2022-07-25T15:44:12.013Z,34.51
2022-07-25T15:47:13.541Z,34.51
2022-07-25T15:50:15.074Z,34.34
2022-07-25T15:53:17.028Z,34.18
2022-07-25T15:56:18.626Z,34.46
2022-07-25T15:59:20.033Z,34.65
2022-07-25T16:02:21.451Z,34.90
2022-07-25T16:05:23.153Z,35.03
2022-07-25T16:08:24.784Z,35.02
2022-07-25T16:11:26.583Z,34.71
2022-07-25T16:14:28.091Z,34.38
2022-07-25T16:17:31.170Z,34.40
2022-07-25T16:20:33.809Z,34.43
2022-07-25T16:23:41.558Z,34.33
2022-07-25T16:26:47.803Z,34.01
2022-07-25T16:29:49.235Z,34.04
2022-07-25T16:32:50.826Z,34.24
2022-07-25T16:35:52.306Z,34.33
2022-07-25T16:38:53.734Z,34.17
2022-07-25T16:41:55.706Z,34.15
2022-07-25T16:44:57.178Z,34.32
2022-07-25T16:47:58.585Z,34.09
2022-07-25T16:51:00.466Z,34.07
2022-07-25T16:54:02.050Z,34.17
2022-07-25T16:57:04.070Z,33.98
2022-07-25T17:00:08.078Z,33.57
2022-07-25T17:03:09.590Z,33.20
2022-07-25T17:06:11.219Z,32.83
2022-07-25T17:09:12.815Z,32.64
2022-07-25T17:12:14.502Z,32.41
2022-07-25T17:15:16.012Z,32.17
2022-07-25T17:18:17.469Z,31.97
2022-07-25T17:21:19.066Z,31.87
2022-07-25T17:24:20.564Z,31.92
2022-07-25T17:27:22.117Z,31.72
2022-07-25T17:30:23.849Z,31.55
2022-07-25T17:33:25.279Z,31.54
2022-07-25T17:36:26.701Z,31.31
2022-07-25T17:39:30.070Z,31.10
2022-07-25T17:42:31.605Z,31.08
2022-07-25T17:45:33.022Z,31.00
2022-07-25T17:48:34.827Z,30.85
2022-07-25T17:51:36.386Z,30.70
2022-07-25T17:54:39.935Z,30.71
2022-07-25T17:57:42.468Z,30.71
2022-07-25T18:00:43.967Z,30.52
2022-07-25T18:03:47.460Z,30.38
2022-07-25T18:06:50.214Z,30.41
2022-07-25T18:09:51.809Z,30.37
2022-07-25T18:12:53.228Z,30.43
2022-07-25T18:15:54.872Z,30.24
2022-07-25T18:18:56.567Z,30.20
2022-07-25T18:21:58.110Z,30.05
2022-07-25T18:24:59.505Z,29.97
2022-07-25T18:28:01.430Z,29.88
2022-07-25T18:31:03.062Z,29.76
2022-07-25T18:34:04.782Z,29.67
2022-07-25T18:37:06.451Z,29.51
2022-07-25T18:40:08.958Z,29.52
2022-07-25T18:43:11.637Z,29.43
2022-07-25T18:46:13.289Z,29.36
2022-07-25T18:49:16.174Z,29.24
2022-07-25T18:52:18.042Z,29.23
2022-07-25T18:55:20.105Z,29.35
2022-07-25T18:58:21.548Z,29.32
2022-07-25T19:01:23.528Z,29.30
2022-07-25T19:04:25.906Z,29.21
2022-07-25T19:07:28.688Z,29.29
2022-07-25T19:10:30.219Z,29.17
2022-07-25T19:13:50.854Z,29.06
2022-07-25T19:16:54.182Z,28.97
2022-07-25T19:19:55.675Z,28.83
2022-07-25T19:22:57.166Z,28.77
2022-07-25T19:25:58.729Z,28.82
2022-07-25T19:29:00.448Z,28.61
2022-07-25T19:32:02.041Z,28.39
2022-07-25T19:35:05.499Z,28.38
2022-07-25T19:38:07.662Z,28.24
2022-07-25T19:41:10.467Z,28.33
2022-07-25T19:44:11.973Z,28.24
2022-07-25T19:47:13.573Z,28.00
2022-07-25T19:50:15.100Z,28.04
2022-07-25T19:53:16.614Z,28.01
2022-07-25T19:56:18.189Z,27.87
2022-07-25T19:59:19.781Z,27.76
2022-07-25T20:02:21.477Z,27.70
2022-07-25T20:05:22.994Z,27.64
2022-07-25T20:08:24.431Z,27.56
2022-07-25T20:11:26.027Z,27.68
2022-07-25T20:14:28.929Z,27.62
2022-07-25T20:17:30.342Z,27.43
2022-07-25T20:20:31.777Z,27.33
2022-07-25T20:23:33.310Z,27.33
2022-07-25T20:26:34.877Z,27.28
2022-07-25T20:29:36.466Z,27.20
2022-07-25T20:32:38.990Z,27.16
2022-07-25T20:35:40.417Z,27.19
2022-07-25T20:38:41.905Z,27.21
2022-07-25T20:41:43.434Z,27.15
2022-07-25T20:44:46.293Z,27.00
2022-07-25T20:47:47.821Z,26.97
2022-07-25T20:50:49.653Z,27.10
2022-07-25T20:53:53.187Z,26.90
2022-07-25T20:56:55.249Z,26.95
2022-07-25T20:59:56.773Z,26.83
2022-07-25T21:02:59.735Z,26.70
2022-07-25T21:06:01.453Z,26.70
2022-07-25T21:09:03.326Z,26.63
2022-07-25T21:12:04.936Z,26.48
2022-07-25T21:15:07.744Z,26.51
2022-07-25T21:18:09.705Z,26.45
2022-07-25T21:21:12.407Z,26.46
2022-07-25T21:24:14.056Z,26.45
2022-07-25T21:27:16.878Z,26.39
2022-07-25T21:30:18.528Z,26.33
2022-07-25T21:33:20.014Z,26.28
2022-07-25T21:36:21.463Z,26.25
2022-07-25T21:39:22.884Z,26.16
2022-07-25T21:42:24.434Z,26.15
2022-07-25T21:45:26.896Z,26.10
2022-07-25T21:48:51.728Z,26.13
2022-07-25T21:51:55.761Z,26.07
2022-07-25T21:55:01.333Z,25.92
2022-07-25T21:58:03.596Z,25.89
2022-07-25T22:01:05.091Z,25.96
2022-07-25T22:04:06.785Z,25.90
2022-07-25T22:07:08.372Z,25.99
2022-07-25T22:10:11.966Z,26.05
2022-07-25T22:13:13.865Z,26.13
2022-07-25T22:16:16.391Z,26.27
2022-07-25T22:19:21.963Z,26.37
2022-07-25T22:22:23.838Z,26.33
2022-07-25T22:25:25.653Z,26.38
2022-07-25T22:28:27.078Z,26.39
2022-07-25T22:31:29.027Z,26.29
2022-07-25T22:34:31.045Z,26.26
2022-07-25T22:37:32.817Z,26.15
2022-07-25T22:40:34.561Z,26.07
2022-07-25T22:43:48.696Z,25.97
2022-07-25T22:46:57.626Z,25.85
2022-07-25T22:49:59.214Z,25.96
2022-07-25T22:53:00.642Z,25.82
2022-07-25T22:56:02.083Z,25.80
2022-07-25T22:59:03.624Z,25.80
2022-07-25T23:02:05.057Z,25.83
2022-07-25T23:05:08.294Z,25.85
2022-07-25T23:08:09.710Z,25.89
2022-07-25T23:11:11.209Z,25.99
2022-07-25T23:14:12.665Z,25.78
2022-07-25T23:17:20.137Z,25.74
2022-07-25T23:20:21.775Z,25.64
2022-07-25T23:23:23.315Z,25.48
2022-07-25T23:26:24.820Z,25.77
2022-07-25T23:29:26.297Z,25.74
2022-07-25T23:32:27.726Z,25.72
2022-07-25T23:35:29.216Z,25.73
2022-07-25T23:38:30.634Z,25.69
2022-07-25T23:41:32.094Z,25.65
2022-07-25T23:44:33.629Z,25.67
2022-07-25T23:47:39.541Z,25.59
2022-07-25T23:50:42.173Z,25.67
2022-07-25T23:53:43.641Z,25.60
2022-07-25T23:56:45.106Z,25.60
2022-07-25T23:59:46.552Z,25.75
